createdAt,value
2018-04-10T00:01:52.014Z,46.87
2018-04-10T00:04:21.384Z,48.80
2018-04-10T00:06:51.089Z,49.40
2018-04-10T00:09:21.685Z,48.50
2018-04-10T00:11:51.142Z,49.17
2018-04-10T00:14:20.664Z,49.30
2018-04-10T00:16:50.124Z,47.90
2018-04-10T00:26:09.875Z,50.67
2018-04-10T00:28:39.728Z,54.07
2018-04-10T00:31:09.954Z,55.17
2018-04-10T00:33:39.960Z,54.13
2018-04-10T00:37:00.652Z,57.73
2018-04-10T00:39:31.101Z,54.20
2018-04-10T00:42:01.874Z,54.10
2018-04-10T00:44:31.442Z,50.80
2018-04-10T00:47:01.691Z,55.37
2018-04-10T00:49:32.075Z,56.90
2018-04-10T00:52:01.705Z,56.43
2018-04-10T00:57:53.450Z,51.97
2018-04-10T01:00:32.464Z,54.60
2018-04-10T01:03:06.521Z,50.97
2018-04-10T01:05:41.814Z,44.97
2018-04-10T01:08:16.412Z,44.80
2018-04-10T01:14:07.800Z,41.77
2018-04-10T01:16:37.710Z,36.73
2018-04-10T01:19:15.287Z,39.27
2018-04-10T01:21:57.823Z,38.47
2018-04-10T01:24:28.026Z,33.03
2018-04-10T01:27:00.526Z,38.87
2018-04-10T01:29:30.152Z,34.97
2018-04-10T01:32:01.054Z,33.87
2018-04-10T01:34:30.608Z,34.60
2018-04-10T01:37:00.385Z,34.33
2018-04-10T01:39:32.230Z,36.37
2018-04-10T01:42:08.728Z,35.13
2018-04-10T01:44:41.370Z,37.13
2018-04-10T01:47:16.136Z,38.57
2018-04-10T01:49:58.972Z,38.53
2018-04-10T01:52:34.925Z,41.57
2018-04-10T01:58:04.222Z,45.20
2018-04-10T02:00:40.234Z,44.40
2018-04-10T02:03:11.792Z,45.77
2018-04-10T02:05:43.142Z,47.00
2018-04-10T02:10:55.714Z,43.47
2018-04-10T02:13:28.973Z,46.57
2018-04-10T02:16:01.065Z,47.27
2018-04-10T02:18:33.151Z,47.13
2018-04-10T02:21:05.782Z,50.53
2018-04-10T02:23:37.995Z,50.63
2018-04-10T02:26:09.131Z,48.43
2018-04-10T02:28:39.563Z,53.00
2018-04-10T02:34:29.712Z,52.13
2018-04-10T02:36:59.136Z,55.83
2018-04-10T02:39:30.520Z,59.43
2018-04-10T02:42:00.289Z,57.20
2018-04-10T02:44:29.894Z,56.03
2018-04-10T02:46:59.258Z,60.87
2018-04-10T02:49:28.567Z,58.60
2018-04-10T02:51:58.109Z,62.37
2018-04-10T02:54:27.468Z,60.13
2018-04-10T02:56:56.794Z,61.47
2018-04-10T03:02:53.303Z,61.83
2018-04-10T03:05:22.698Z,203.77
2018-04-10T03:07:52.248Z,54.73
2018-04-10T03:10:21.750Z,48.70
2018-04-10T03:12:51.110Z,53.93
2018-04-10T03:15:20.426Z,51.77
2018-04-10T03:17:50.638Z,53.43
2018-04-10T03:20:19.928Z,51.87
2018-04-10T03:22:49.227Z,53.20
2018-04-10T03:25:18.518Z,55.40
2018-04-10T03:27:48.014Z,60.97
2018-04-10T03:30:45.722Z,62.00
2018-04-10T03:33:15.341Z,58.43
2018-04-10T03:35:44.810Z,56.03
2018-04-10T03:38:14.454Z,54.23
2018-04-10T03:40:43.696Z,52.80
2018-04-10T03:43:13.362Z,55.23
2018-04-10T03:45:43.054Z,56.23
2018-04-10T03:48:17.057Z,58.23
2018-04-10T03:50:46.448Z,54.33
2018-04-10T03:53:16.213Z,56.17
2018-04-10T03:55:46.044Z,55.30
2018-04-10T03:58:15.564Z,57.70
2018-04-10T04:00:45.594Z,57.87
2018-04-10T04:03:14.984Z,60.10
2018-04-10T04:05:45.770Z,60.73
2018-04-10T04:08:15.178Z,59.30
2018-04-10T04:10:45.396Z,57.50
2018-04-10T04:13:15.217Z,66.40
2018-04-10T04:15:44.815Z,58.93
2018-04-10T04:18:26.198Z,59.03
2018-04-10T04:21:08.643Z,58.30
2018-04-10T04:23:40.689Z,66.67
2018-04-10T04:26:11.229Z,53.23
2018-04-10T04:28:44.061Z,58.93
2018-04-10T04:31:16.642Z,54.13
2018-04-10T04:33:51.069Z,61.10
2018-04-10T04:36:20.917Z,55.70
2018-04-10T04:38:51.058Z,56.07
2018-04-10T04:41:20.995Z,63.43
2018-04-10T04:43:50.440Z,52.47
2018-04-10T04:46:20.029Z,53.37
2018-04-10T04:48:49.315Z,55.80
2018-04-10T04:51:19.223Z,57.33
2018-04-10T04:53:49.402Z,58.27
2018-04-10T04:56:19.068Z,58.00
2018-04-10T04:58:49.062Z,56.27
2018-04-10T05:01:18.690Z,56.83
2018-04-10T05:03:48.020Z,53.87
2018-04-10T05:06:17.851Z,55.13
2018-04-10T05:08:47.770Z,57.07
2018-04-10T05:11:17.552Z,56.93
2018-04-10T05:13:47.383Z,56.07
2018-04-10T05:16:16.775Z,54.63
2018-04-10T05:18:46.699Z,53.07
2018-04-10T05:21:16.057Z,54.30
2018-04-10T05:23:45.458Z,52.33
2018-04-10T05:26:15.090Z,53.13
2018-04-10T05:28:44.508Z,209.07
2018-04-10T05:31:15.339Z,53.73
2018-04-10T05:33:44.724Z,55.27
2018-04-10T05:36:14.001Z,52.40
2018-04-10T05:38:43.375Z,52.50
2018-04-10T05:41:13.563Z,54.50
2018-04-10T05:43:43.374Z,55.80
2018-04-10T05:46:12.794Z,55.73
2018-04-10T05:48:42.525Z,57.17
2018-04-10T05:51:12.020Z,58.10
2018-04-10T05:57:13.158Z,59.27
2018-04-10T05:59:42.836Z,62.77
2018-04-10T06:02:13.974Z,61.73
2018-04-10T06:04:43.636Z,59.40
2018-04-10T06:07:14.355Z,54.77
2018-04-10T06:09:44.800Z,59.43
2018-04-10T06:12:14.941Z,57.17
2018-04-10T06:14:45.018Z,70.40
2018-04-10T06:17:16.049Z,55.73
2018-04-10T06:19:45.981Z,59.03
2018-04-10T06:22:16.449Z,58.83
2018-04-10T06:24:46.109Z,58.77
2018-04-10T06:27:16.272Z,55.47
2018-04-10T06:29:46.509Z,56.77
2018-04-10T06:32:16.800Z,58.53
2018-04-10T06:38:07.632Z,59.17
2018-04-10T06:40:37.028Z,59.30
2018-04-10T06:43:07.418Z,59.53
2018-04-10T06:45:37.161Z,60.43
2018-04-10T06:48:06.513Z,59.03
2018-04-10T06:50:35.876Z,67.60
2018-04-10T06:53:05.384Z,60.27
2018-04-10T06:55:34.752Z,61.17
2018-04-10T06:58:04.163Z,61.73
2018-04-10T07:00:33.684Z,63.37
2018-04-10T07:03:03.654Z,64.97
2018-04-10T07:05:33.077Z,62.73
2018-04-10T07:08:02.722Z,61.80
2018-04-10T07:10:32.089Z,57.80
2018-04-10T07:13:01.891Z,61.93
2018-04-10T07:15:31.685Z,60.03
2018-04-10T07:18:01.042Z,63.17
2018-04-10T07:20:30.992Z,57.60
2018-04-10T07:23:00.411Z,57.20
2018-04-10T07:25:29.748Z,55.43
2018-04-10T07:27:59.460Z,55.80
2018-04-10T07:30:28.893Z,57.33
2018-04-10T07:32:58.348Z,58.17
2018-04-10T07:35:28.188Z,59.57
2018-04-10T07:37:58.410Z,60.40
2018-04-10T07:40:28.379Z,58.97
2018-04-10T07:42:57.839Z,59.73
2018-04-10T07:45:27.257Z,59.87
2018-04-10T07:47:57.076Z,60.30
2018-04-10T07:50:26.766Z,58.67
2018-04-10T07:52:56.366Z,56.00
2018-04-10T07:55:25.805Z,59.83
2018-04-10T07:57:56.039Z,63.60
2018-04-10T08:00:25.501Z,65.50
2018-04-10T08:02:55.106Z,67.77
2018-04-10T08:05:25.306Z,69.20
2018-04-10T08:07:54.668Z,67.70
2018-04-10T08:10:24.852Z,67.70
2018-04-10T08:12:54.250Z,70.50
2018-04-10T08:15:23.641Z,67.50
2018-04-10T08:17:53.094Z,68.50
2018-04-10T08:20:23.638Z,69.87
2018-04-10T08:22:53.932Z,74.33
2018-04-10T08:25:23.875Z,75.53
2018-04-10T08:27:53.271Z,78.97
2018-04-10T08:30:23.465Z,75.23
2018-04-10T08:32:52.959Z,72.87
2018-04-10T08:35:22.317Z,71.53
2018-04-10T08:37:51.764Z,75.90
2018-04-10T08:40:21.167Z,76.37
2018-04-10T08:42:50.581Z,75.37
2018-04-10T08:45:20.043Z,79.47
2018-04-10T08:47:49.954Z,76.77
2018-04-10T08:50:19.748Z,79.23
2018-04-10T08:52:49.254Z,76.87
2018-04-10T08:55:18.651Z,76.47
2018-04-10T08:57:49.038Z,75.97
2018-04-10T09:00:18.652Z,78.50
2018-04-10T09:02:48.077Z,82.47
2018-04-10T09:05:18.474Z,80.23
2018-04-10T09:07:48.056Z,76.43
2018-04-10T09:10:17.424Z,80.80
2018-04-10T09:12:46.895Z,76.23
2018-04-10T09:15:16.258Z,81.33
2018-04-10T09:21:14.412Z,76.00
2018-04-10T09:23:44.288Z,74.77
2018-04-10T09:26:13.600Z,77.70
2018-04-10T09:28:42.979Z,75.83
2018-04-10T09:31:13.104Z,72.93
2018-04-10T09:34:10.343Z,78.13
2018-04-10T09:36:41.199Z,68.13
2018-04-10T09:39:12.109Z,69.70
2018-04-10T09:41:42.243Z,67.07
2018-04-10T09:47:56.341Z,71.80
2018-04-10T09:50:25.865Z,65.10
2018-04-10T09:52:55.458Z,61.40
2018-04-10T09:55:26.407Z,68.87
2018-04-10T09:57:55.793Z,69.80
2018-04-10T10:00:30.923Z,66.43
2018-04-10T10:03:00.571Z,69.03
2018-04-10T10:05:30.281Z,67.50
2018-04-10T10:08:00.391Z,64.47
2018-04-10T10:13:51.027Z,71.23
2018-04-10T10:16:20.821Z,72.83
2018-04-10T10:18:50.908Z,75.70
2018-04-10T10:21:20.754Z,73.73
2018-04-10T10:23:50.700Z,76.37
2018-04-10T10:26:20.156Z,79.77
2018-04-10T10:28:49.964Z,76.27
2018-04-10T10:31:20.446Z,73.40
2018-04-10T10:37:11.661Z,61.17
2018-04-10T10:39:40.986Z,61.87
2018-04-10T10:42:10.799Z,61.33
2018-04-10T10:44:40.612Z,60.63
2018-04-10T10:50:31.964Z,63.43
2018-04-10T10:53:02.565Z,64.10
2018-04-10T10:55:32.515Z,65.20
2018-04-10T10:58:02.277Z,65.30
2018-04-10T11:00:32.331Z,65.33
2018-04-10T11:03:02.125Z,70.07
2018-04-10T11:05:31.985Z,65.93
2018-04-10T11:08:01.916Z,68.03
2018-04-10T11:10:31.782Z,68.47
2018-04-10T11:13:01.440Z,66.73
2018-04-10T11:15:31.291Z,66.93
2018-04-10T11:18:01.358Z,67.73
2018-04-10T11:20:30.795Z,67.70
2018-04-10T11:23:01.894Z,65.07
2018-04-10T11:25:32.070Z,66.90
2018-04-10T11:28:01.607Z,65.00
2018-04-10T11:30:31.374Z,65.77
2018-04-10T11:33:01.083Z,70.63
2018-04-10T11:35:30.403Z,80.10
2018-04-10T11:38:00.443Z,83.17
2018-04-10T11:40:30.231Z,86.73
2018-04-10T11:43:00.136Z,88.80
2018-04-10T11:45:29.960Z,83.80
2018-04-10T11:47:59.731Z,79.97
2018-04-10T11:50:29.627Z,85.43
2018-04-10T11:52:59.652Z,85.73
2018-04-10T11:55:29.363Z,85.63
2018-04-10T11:57:58.917Z,85.00
2018-04-10T12:00:28.296Z,80.57
2018-04-10T12:02:58.928Z,82.13
2018-04-10T12:05:28.276Z,80.77
2018-04-10T12:07:58.019Z,80.87
2018-04-10T12:10:27.427Z,75.17
2018-04-10T12:12:57.255Z,78.40
2018-04-10T12:15:27.473Z,77.20
2018-04-10T12:17:57.933Z,75.27
2018-04-10T12:20:31.901Z,69.87
2018-04-10T12:23:03.710Z,70.67
2018-04-10T12:25:40.521Z,73.33
2018-04-10T12:31:32.092Z,62.57
2018-04-10T12:34:01.320Z,61.80
2018-04-10T12:36:30.844Z,62.50
2018-04-10T12:39:00.213Z,65.80
2018-04-10T12:41:29.456Z,64.73
2018-04-10T12:43:59.057Z,66.83
2018-04-10T12:46:28.384Z,68.63
2018-04-10T12:48:58.478Z,65.60
2018-04-10T12:51:27.758Z,70.67
2018-04-10T12:53:56.971Z,68.70
2018-04-10T12:56:26.162Z,61.13
2018-04-10T12:58:55.441Z,60.20
2018-04-10T13:01:24.676Z,60.37
2018-04-10T13:03:53.835Z,59.43
2018-04-10T13:06:26.724Z,58.37
2018-04-10T13:09:00.458Z,58.03
2018-04-10T13:14:51.486Z,57.23
2018-04-10T13:17:21.668Z,58.43
2018-04-10T13:19:50.999Z,57.73
2018-04-10T13:22:21.141Z,58.47
2018-04-10T13:24:50.392Z,58.20
2018-04-10T13:27:19.646Z,63.70
2018-04-10T13:29:48.963Z,64.47
2018-04-10T13:32:18.197Z,65.17
2018-04-10T13:34:47.587Z,65.60
2018-04-10T13:37:16.815Z,64.63
2018-04-10T13:39:46.291Z,67.67
2018-04-10T13:42:15.574Z,69.00
2018-04-10T13:44:44.900Z,72.20
2018-04-10T13:47:14.116Z,69.87
2018-04-10T13:49:43.482Z,71.47
2018-04-10T13:52:12.796Z,71.77
2018-04-10T13:54:42.261Z,69.50
2018-04-10T13:57:11.602Z,66.33
2018-04-10T13:59:40.993Z,70.07
2018-04-10T14:02:10.327Z,66.97
2018-04-10T14:04:39.740Z,64.40
2018-04-10T14:07:10.003Z,67.33
2018-04-10T14:09:40.261Z,70.13
2018-04-10T14:12:09.561Z,69.33
2018-04-10T14:14:39.062Z,71.50
2018-04-10T14:17:08.716Z,75.77
2018-04-10T14:19:38.011Z,78.20
2018-04-10T14:22:07.375Z,75.80
2018-04-10T14:24:36.681Z,77.53
2018-04-10T14:27:06.132Z,75.67
2018-04-10T14:29:35.462Z,73.87
2018-04-10T14:32:04.884Z,77.13
2018-04-10T14:34:34.373Z,77.93
2018-04-10T14:37:03.793Z,79.80
2018-04-10T14:39:33.412Z,84.90
2018-04-10T14:42:06.422Z,83.73
2018-04-10T14:44:35.831Z,52.37
2018-04-10T14:47:05.196Z,51.97
2018-04-10T14:49:34.559Z,52.83
2018-04-10T14:52:04.103Z,55.10
2018-04-10T14:54:33.416Z,41.47
2018-04-10T14:57:02.625Z,41.93
2018-04-10T14:59:34.738Z,41.87
2018-04-10T15:02:07.070Z,36.53
2018-04-10T15:04:36.313Z,32.63
2018-04-10T15:07:05.607Z,31.77
2018-04-10T15:09:34.813Z,34.10
2018-04-10T15:12:04.185Z,27.70
2018-04-10T15:14:34.542Z,27.80
2018-04-10T15:17:04.401Z,28.80
2018-04-10T15:19:33.910Z,26.00
2018-04-10T15:22:03.179Z,25.77
2018-04-10T15:24:32.527Z,25.93
2018-04-10T15:27:01.720Z,24.77
2018-04-10T15:29:31.011Z,29.63
2018-04-10T15:32:00.270Z,27.07
2018-04-10T15:34:29.542Z,28.33
2018-04-10T15:36:58.795Z,26.70
2018-04-10T15:39:28.222Z,25.88
2018-04-10T15:41:57.381Z,25.23
2018-04-10T15:47:59.948Z,28.87
2018-04-10T15:50:29.656Z,26.00
2018-04-10T15:52:59.515Z,27.90
2018-04-10T15:55:29.608Z,28.73
2018-04-10T15:57:59.651Z,28.73
2018-04-10T16:00:29.121Z,29.37
2018-04-10T16:02:59.016Z,31.95
2018-04-10T16:05:30.025Z,30.48
2018-04-10T16:07:59.484Z,33.08
2018-04-10T16:10:29.091Z,29.35
2018-04-10T16:12:58.516Z,30.55
2018-04-10T16:15:28.682Z,31.37
2018-04-10T16:17:58.690Z,29.23
2018-04-10T16:20:28.582Z,30.85
2018-04-10T16:22:59.116Z,30.33
2018-04-10T16:28:50.152Z,32.72
2018-04-10T16:31:19.770Z,35.87
2018-04-10T16:33:50.064Z,35.03
2018-04-10T16:36:19.581Z,34.80
2018-04-10T16:38:49.350Z,34.13
2018-04-10T16:41:19.231Z,33.50
2018-04-10T16:43:48.708Z,33.77
2018-04-10T16:46:18.071Z,33.77
2018-04-10T16:48:48.168Z,33.27
2018-04-10T16:51:18.012Z,34.17
2018-04-10T16:53:47.556Z,33.67
2018-04-10T16:56:17.687Z,36.30
2018-04-10T16:58:47.158Z,33.63
2018-04-10T17:01:16.532Z,33.70
2018-04-10T17:03:46.405Z,32.47
2018-04-10T17:06:15.867Z,34.05
2018-04-10T17:08:45.359Z,32.22
2018-04-10T17:11:14.795Z,35.78
2018-04-10T17:13:44.317Z,34.15
2018-04-10T17:16:13.725Z,34.60
2018-04-10T17:18:43.227Z,33.47
2018-04-10T17:21:12.652Z,35.70
2018-04-10T17:26:29.633Z,33.35
2018-04-10T17:29:03.197Z,36.08
2018-04-10T17:31:35.467Z,35.88
2018-04-10T17:34:08.189Z,38.30
2018-04-10T17:36:42.579Z,34.83
2018-04-10T17:39:20.025Z,39.50
2018-04-10T17:41:51.314Z,40.97
2018-04-10T17:44:21.649Z,41.63
2018-04-10T17:46:51.157Z,33.65
2018-04-10T17:49:35.418Z,29.25
2018-04-10T17:52:05.618Z,31.83
2018-04-10T17:54:35.890Z,31.03
2018-04-10T17:57:05.344Z,32.20
2018-04-10T17:59:35.651Z,35.17
2018-04-10T18:02:06.759Z,30.13
2018-04-10T18:04:36.665Z,31.10
2018-04-10T18:07:06.699Z,30.02
2018-04-10T18:09:36.563Z,30.87
2018-04-10T18:12:06.607Z,32.57
2018-04-10T18:14:37.007Z,31.00
2018-04-10T18:17:06.972Z,29.53
2018-04-10T18:19:36.713Z,30.23
2018-04-10T18:22:07.036Z,33.70
2018-04-10T18:24:36.923Z,32.73
2018-04-10T18:27:06.935Z,34.47
2018-04-10T18:29:36.755Z,32.42
2018-04-10T18:32:06.800Z,34.55
2018-04-10T18:34:36.651Z,38.00
2018-04-10T18:37:05.960Z,34.83
2018-04-10T18:39:35.668Z,35.87
2018-04-10T18:42:05.666Z,39.33
2018-04-10T18:44:35.468Z,34.97
2018-04-10T18:47:05.120Z,34.90
2018-04-10T18:49:34.901Z,34.03
2018-04-10T18:55:26.676Z,34.27
2018-04-10T18:57:56.628Z,39.27
2018-04-10T19:00:26.410Z,38.33
2018-04-10T19:02:56.085Z,34.00
2018-04-10T19:05:26.327Z,32.63
2018-04-10T19:07:57.750Z,32.87
2018-04-10T19:10:27.111Z,33.97
2018-04-10T19:12:56.436Z,35.30
2018-04-10T19:15:25.896Z,33.57
2018-04-10T19:17:55.927Z,38.30
2018-04-10T19:20:26.213Z,33.83
2018-04-10T19:22:55.550Z,33.03
2018-04-10T19:25:24.905Z,35.20
2018-04-10T19:28:04.303Z,31.77
2018-04-10T19:30:38.158Z,33.60
2018-04-10T19:33:08.107Z,34.53
2018-04-10T19:35:37.423Z,37.33
2018-04-10T19:38:07.309Z,35.73
2018-04-10T19:40:37.364Z,35.87
2018-04-10T19:43:07.286Z,37.20
2018-04-10T19:45:36.655Z,36.53
2018-04-10T19:48:06.562Z,35.10
2018-04-10T19:50:37.140Z,35.77
2018-04-10T19:53:07.385Z,33.90
2018-04-10T19:55:37.478Z,35.83
2018-04-10T19:58:07.296Z,33.40
2018-04-10T20:00:37.089Z,33.63
2018-04-10T20:03:06.870Z,32.40
2018-04-10T20:05:37.305Z,33.87
2018-04-10T20:08:07.082Z,33.93
2018-04-10T20:10:59.537Z,33.20
2018-04-10T20:13:29.099Z,33.17
2018-04-10T20:16:01.208Z,33.80
2018-04-10T20:18:31.113Z,33.53
2018-04-10T20:21:00.520Z,32.27
2018-04-10T20:23:29.980Z,33.70
2018-04-10T20:25:59.404Z,32.17
2018-04-10T20:28:29.640Z,34.20
2018-04-10T20:30:59.066Z,33.50
2018-04-10T20:33:29.297Z,34.23
2018-04-10T20:42:51.854Z,36.77
2018-04-10T20:45:21.510Z,40.67
2018-04-10T20:47:51.193Z,38.73
2018-04-10T20:50:21.196Z,41.90
2018-04-10T20:52:50.706Z,42.17
2018-04-10T20:55:20.387Z,44.60
2018-04-10T20:57:56.582Z,41.17
2018-04-10T21:00:26.610Z,45.13
2018-04-10T21:02:56.174Z,46.50
2018-04-10T21:05:26.406Z,50.03
2018-04-10T21:07:56.135Z,48.00
2018-04-10T21:10:26.713Z,54.83
2018-04-10T21:12:56.568Z,54.90
2018-04-10T21:15:25.889Z,56.77
2018-04-10T21:17:55.128Z,58.87
2018-04-10T21:20:25.526Z,56.50
2018-04-10T21:22:55.173Z,58.30
2018-04-10T21:25:24.493Z,59.17
2018-04-10T21:27:54.197Z,59.83
2018-04-10T21:30:24.566Z,58.73
2018-04-10T21:32:54.091Z,58.63
2018-04-10T21:35:23.542Z,59.07
2018-04-10T21:37:53.258Z,62.17
2018-04-10T21:40:23.564Z,60.93
2018-04-10T21:42:58.085Z,63.07
2018-04-10T21:45:27.623Z,61.63
2018-04-10T21:47:56.910Z,60.43
2018-04-10T21:50:26.987Z,63.90
2018-04-10T21:52:57.113Z,62.50
2018-04-10T21:55:26.322Z,61.53
2018-04-10T21:57:55.628Z,58.80
2018-04-10T22:00:25.426Z,63.17
2018-04-10T22:02:54.778Z,61.43
2018-04-10T22:05:24.459Z,60.03
2018-04-10T22:07:54.200Z,60.83
2018-04-10T22:11:01.462Z,60.97
2018-04-10T22:13:30.828Z,64.50
2018-04-10T22:16:01.505Z,64.70
2018-04-10T22:18:30.930Z,59.87
2018-04-10T22:21:00.272Z,62.67
2018-04-10T22:23:30.828Z,65.03
2018-04-10T22:26:00.173Z,66.10
2018-04-10T22:28:30.089Z,64.33
2018-04-10T22:30:59.936Z,67.17
2018-04-10T22:33:29.877Z,66.17
2018-04-10T22:39:31.562Z,64.87
2018-04-10T22:42:02.578Z,69.80
2018-04-10T22:44:32.228Z,70.13
2018-04-10T22:47:02.306Z,62.33
2018-04-10T22:49:32.570Z,66.40
2018-04-10T22:52:01.846Z,63.70
2018-04-10T22:54:33.285Z,64.03
2018-04-10T22:57:02.936Z,67.30
2018-04-10T22:59:32.198Z,67.23
2018-04-10T23:02:01.850Z,62.10
2018-04-10T23:04:31.212Z,63.20
2018-04-10T23:07:00.888Z,63.37
2018-04-10T23:09:30.481Z,67.67
2018-04-10T23:11:59.947Z,66.23
2018-04-10T23:14:29.241Z,69.03
2018-04-10T23:20:20.585Z,66.57
2018-04-10T23:22:50.653Z,66.80
2018-04-10T23:28:41.958Z,67.13
2018-04-10T23:31:12.457Z,65.73
2018-04-10T23:33:42.624Z,63.70
2018-04-10T23:36:12.301Z,66.20
2018-04-10T23:38:42.332Z,66.53
2018-04-10T23:41:12.122Z,68.67
2018-04-10T23:43:43.309Z,60.83
2018-04-10T23:46:18.114Z,62.90
2018-04-10T23:48:49.412Z,59.57
2018-04-10T23:51:19.534Z,57.73
2018-04-10T23:53:49.296Z,54.83
2018-04-10T23:56:20.213Z,54.23
2018-04-10T23:58:50.087Z,48.67
